Croydon, Utah
Current Conditions -  °F | °C
As of 12:58 AM on Monday 26 Jan 2015 (Local Time) from KHIF Reporting Station
Clear Clear  
Wind Chill: -4°   Ceiling: Unl
Heat Index:   Visibility: 10mi
Dew Point: -1°   Wind: 10mph
Humidity: 87%   Direction: 120°ESE
Pressure: 30.4"   Gusts: NA
Location:  41.07°N, 111.51°W
Report Text: KHIF 260758Z AUTO 12009KT 10SM CLR 01/M01 A3040 RMK AO2 SLP295 T00091011
Loading
Personal Weather Stations






























Interactive Weather Map New forecast layout! Learn more

10-Day Weather Forecast

Advertisements
Track Severe Weather on mobile